Time;durP1;ratioP1;P1;durP2;ratioP2;P2;SDS_P1;SDS_P2;PMS_P1;PMS_P2;Temp;Humidity;BMP_temperature;BMP_pressure;BME280_temperature;BME280_humidity;BME280_pressure;Samples;Min_cycle;Max_cycle;Signal;HPM_P1;HPM_P2
2022/07/10 00:00:01;;;;;;;4.80;2.60;;;;;;;22.32;100.00;101150.09;2074884;28;20565;-66
2022/07/10 00:01:01;;;;;;;4.67;2.87;;;;;;;22.31;100.00;101156.25;2080750;28;20177;-65
2022/07/10 00:02:03;;;;;;;4.93;2.80;;;;;;;22.29;100.00;101151.09;2081520;28;20675;-65
2022/07/10 00:03:05;;;;;;;4.50;2.50;;;;;;;22.31;100.00;101144.97;2072528;28;20655;-65
2022/07/10 00:04:05;;;;;;;4.87;2.57;;;;;;;22.33;100.00;101148.84;2080190;28;20208;-66
2022/07/10 00:05:07;;;;;;;5.97;2.60;;;;;;;21.88;100.00;101073.50;2081121;28;20455;-65
2022/07/10 00:06:08;;;;;;;4.37;2.83;;;;;;;22.31;100.00;101142.91;2075331;28;20635;-65
2022/07/10 00:07:08;;;;;;;3.87;2.50;;;;;;;21.40;100.00;101010.44;2072732;28;20193;-66
2022/07/10 00:08:09;;;;;;;5.37;2.60;;;;;;;22.23;100.00;101136.16;2075842;28;20667;-66
2022/07/10 00:09:09;;;;;;;5.07;2.57;;;;;;;22.26;100.00;101143.63;2079249;28;20200;-65
2022/07/10 00:10:10;;;;;;;13.43;3.23;;;;;;;22.20;100.00;101156.91;2072832;28;20195;-66
2022/07/10 00:11:11;;;;;;;5.63;2.27;;;;;;;22.18;100.00;101141.75;2073127;28;20185;-66
2022/07/10 00:12:11;;;;;;;5.20;2.50;;;;;;;21.30;100.00;101006.25;2080880;28;20493;-66
2022/07/10 00:13:12;;;;;;;3.97;2.87;;;;;;;22.22;100.00;101140.25;2080449;28;20189;-65
2022/07/10 00:14:12;;;;;;;3.97;2.60;;;;;;;22.19;100.00;101148.94;2075822;28;20193;-66
2022/07/10 00:15:15;;;;;;;8.23;2.80;;;;;;;22.17;100.00;101143.81;2072832;28;20193;-66
2022/07/10 00:16:15;;;;;;;2.60;2.40;;;;;;;22.06;100.00;101137.28;2072130;28;20288;-65
2022/07/10 00:17:16;;;;;;;5.90;3.00;;;;;;;22.05;100.00;101139.31;2074727;28;20186;-66
2022/07/10 00:18:16;;;;;;;4.57;2.70;;;;;;;22.04;100.00;101146.25;2080197;28;20238;-65
2022/07/10 00:19:17;;;;;;;7.13;2.77;;;;;;;21.95;100.00;101140.00;2073120;28;20261;-65
2022/07/10 00:20:17;;;;;;;5.13;2.80;;;;;;;21.96;100.00;101142.31;2080950;28;20193;-66
2022/07/10 00:21:18;;;;;;;7.13;2.80;;;;;;;21.82;100.00;101134.75;2074042;28;20572;-65
2022/07/10 00:22:19;;;;;;;5.03;2.80;;;;;;;21.91;100.00;101142.28;2072716;28;20186;-65
2022/07/10 00:23:19;;;;;;;8.10;2.90;;;;;;;21.00;100.00;101001.28;2077334;28;20672;-65
2022/07/10 00:24:20;;;;;;;9.10;3.10;;;;;;;21.89;100.00;101134.31;2077417;28;20216;-65
2022/07/10 00:25:20;;;;;;;6.00;3.37;;;;;;;21.40;100.00;101072.47;2071988;28;20201;-65
2022/07/10 00:26:21;;;;;;;4.40;2.93;;;;;;;21.67;100.00;101141.72;2072005;28;20324;-65
2022/07/10 00:27:21;;;;;;;5.93;2.97;;;;;;;20.52;100.00;100974.81;2072427;28;20244;-65
2022/07/10 00:28:23;;;;;;;5.63;3.00;;;;;;;21.53;100.00;101118.00;2073180;28;20189;-65
2022/07/10 00:29:23;;;;;;;3.97;2.87;;;;;;;21.69;100.00;101133.59;2080438;28;20639;-65
2022/07/10 00:30:24;;;;;;;4.63;2.87;;;;;;;20.99;100.00;101036.38;2074600;28;20862;-65
2022/07/10 00:31:24;;;;;;;5.30;2.87;;;;;;;21.68;100.00;101146.09;2072765;28;20618;-65
2022/07/10 00:32:25;;;;;;;5.23;2.87;;;;;;;21.73;100.00;101142.59;2076465;28;20200;-65
2022/07/10 00:33:25;;;;;;;5.70;3.10;;;;;;;21.36;100.00;101093.69;2078005;28;20677;-66
2022/07/10 00:34:26;;;;;;;6.13;2.97;;;;;;;21.70;100.00;101143.59;2072850;28;20217;-65
2022/07/10 00:35:26;;;;;;;5.30;2.73;;;;;;;21.69;100.00;101131.53;2078224;28;20559;-65
2022/07/10 00:36:27;;;;;;;4.33;2.83;;;;;;;21.68;100.00;101144.09;2072674;28;20206;-65
2022/07/10 00:37:28;;;;;;;4.43;2.93;;;;;;;21.62;100.00;101146.03;2072602;28;20280;-66
2022/07/10 00:38:28;;;;;;;8.60;2.77;;;;;;;21.59;100.00;101140.63;2079591;28;20176;-66
2022/07/10 00:39:29;;;;;;;5.63;3.13;;;;;;;21.61;100.00;101161.44;2080832;28;20203;-65
2022/07/10 00:40:29;;;;;;;5.77;2.87;;;;;;;20.98;100.00;101035.59;2076366;28;20194;-66
2022/07/10 00:41:30;;;;;;;7.70;3.10;;;;;;;20.66;100.00;100976.75;2072713;28;20221;-65
2022/07/10 00:42:30;;;;;;;5.30;3.10;;;;;;;21.59;100.00;101132.16;2074549;28;20191;-65
2022/07/10 00:44:00;;;;;;;5.20;2.97;;;;;;;21.59;100.00;101129.34;2080705;28;20169;-65
2022/07/10 00:45:01;;;;;;;4.27;3.30;;;;;;;21.61;100.00;101136.03;2076924;28;20200;-65
2022/07/10 00:46:01;;;;;;;7.30;3.20;;;;;;;21.64;100.00;101128.63;2074626;28;20429;-66
2022/07/10 00:47:08;;;;;;;4.60;2.87;;;;;;;21.62;100.00;101136.78;2080770;28;20220;-65
2022/07/10 00:48:11;;;;;;;5.00;3.07;;;;;;;21.59;100.00;101132.91;2080072;28;20323;-65
2022/07/10 00:49:12;;;;;;;6.57;3.47;;;;;;;21.61;100.00;101136.03;2080168;28;20968;-65
2022/07/10 00:50:13;;;;;;;3.90;2.90;;;;;;;21.52;100.00;101126.94;2081106;28;20915;-66
2022/07/10 00:51:15;;;;;;;7.60;3.00;;;;;;;21.24;100.00;101086.38;2080762;28;20189;-66
2022/07/10 00:52:18;;;;;;;5.40;2.90;;;;;;;21.55;100.00;101131.59;2080772;28;20200;-66
2022/07/10 00:53:18;;;;;;;3.30;2.77;;;;;;;20.58;100.00;100998.19;2080623;28;20435;-65
2022/07/10 00:54:20;;;;;;;6.10;2.83;;;;;;;21.45;100.00;101138.66;2081096;28;20827;-65
2022/07/10 00:55:21;;;;;;;5.63;2.90;;;;;;;21.50;100.00;101133.06;2076587;28;20647;-66
2022/07/10 00:56:25;;;;;;;4.20;2.90;;;;;;;21.50;100.00;101143.59;2072346;28;21053;-65
2022/07/10 00:57:26;;;;;;;5.23;3.10;;;;;;;21.48;100.00;101132.81;2074660;28;20428;-66
2022/07/10 00:58:26;;;;;;;6.97;2.80;;;;;;;21.50;100.00;101138.72;2080649;28;20420;-66
2022/07/10 00:59:28;;;;;;;5.27;3.03;;;;;;;21.51;100.00;101140.28;2080985;28;20212;-65
2022/07/10 01:00:28;;;;;;;5.00;3.00;;;;;;;21.53;100.00;101134.91;2072802;28;20182;-65
2022/07/10 01:01:29;;;;;;;6.30;3.00;;;;;;;21.56;100.00;101133.94;2079744;28;20706;-66
2022/07/10 01:02:29;;;;;;;6.80;2.80;;;;;;;21.59;100.00;101137.81;2080341;28;20196;-65
2022/07/10 01:03:30;;;;;;;7.10;2.70;;;;;;;21.61;100.00;101138.06;2080740;28;20192;-66
2022/07/10 01:04:32;;;;;;;6.70;3.10;;;;;;;21.25;100.00;101073.84;2077175;28;20682;-65
2022/07/10 01:05:32;;;;;;;6.53;3.00;;;;;;;21.10;100.00;101053.41;2074884;28;20303;-65
2022/07/10 01:06:33;;;;;;;8.80;3.20;;;;;;;21.66;100.00;101129.69;2080459;28;20960;-66
2022/07/10 01:07:33;;;;;;;4.00;2.70;;;;;;;21.39;100.00;101087.06;2080585;28;20628;-65
2022/07/10 01:08:34;;;;;;;4.80;2.80;;;;;;;21.69;100.00;101134.34;2081002;28;20259;-66
2022/07/10 01:09:34;;;;;;;5.40;3.20;;;;;;;21.70;100.00;101121.03;2072248;28;20291;-65
2022/07/10 01:10:36;;;;;;;4.03;2.80;;;;;;;21.68;100.00;101126.34;2078394;28;20196;-65
2022/07/10 01:11:37;;;;;;;5.17;3.10;;;;;;;21.62;100.00;101128.34;2080687;28;20239;-65
2022/07/10 01:12:37;;;;;;;5.33;3.20;;;;;;;21.40;100.00;101103.47;2075851;28;20436;-66
2022/07/10 01:13:39;;;;;;;7.03;3.10;;;;;;;21.57;100.00;101134.69;2075794;28;20945;-65
2022/07/10 01:14:41;;;;;;;4.13;3.10;;;;;;;21.58;100.00;101128.56;2078650;28;20169;-65
2022/07/10 01:15:42;;;;;;;6.83;2.90;;;;;;;21.60;100.00;101128.06;2072997;28;20416;-65
2022/07/10 01:16:42;;;;;;;6.13;2.80;;;;;;;21.62;100.00;101136.78;2080353;28;20423;-65
2022/07/10 01:17:43;;;;;;;5.50;2.93;;;;;;;21.56;100.00;101135.97;2072954;28;20462;-65
2022/07/10 01:18:44;;;;;;;6.67;3.10;;;;;;;21.52;100.00;101127.72;2072498;28;20199;-65
2022/07/10 01:19:45;;;;;;;5.47;3.23;;;;;;;21.54;100.00;101127.25;2072714;28;20637;-66
2022/07/10 01:20:45;;;;;;;5.57;2.97;;;;;;;21.53;100.00;101129.28;2077542;28;20649;-65
2022/07/10 01:21:46;;;;;;;3.90;2.77;;;;;;;21.53;100.00;101128.47;2076764;28;20186;-65
2022/07/10 01:22:46;;;;;;;5.27;3.03;;;;;;;21.51;100.00;101133.84;2074897;28;20722;-65
2022/07/10 01:23:47;;;;;;;6.17;3.10;;;;;;;21.50;100.00;101121.78;2080808;28;20728;-65
2022/07/10 01:24:47;;;;;;;4.40;3.00;;;;;;;21.45;100.00;101135.84;2080050;28;20260;-65
2022/07/10 01:25:49;;;;;;;4.07;2.90;;;;;;;21.20;100.00;101103.50;2071723;28;20359;-65
2022/07/10 01:26:49;;;;;;;6.07;3.30;;;;;;;21.38;100.00;101128.56;2080599;28;20205;-65
2022/07/10 01:27:50;;;;;;;3.47;3.13;;;;;;;21.38;100.00;101130.59;2074125;28;20435;-65
2022/07/10 01:28:52;;;;;;;5.90;3.10;;;;;;;21.37;100.00;101129.84;2071488;28;20197;-65
2022/07/10 01:29:54;;;;;;;4.87;3.40;;;;;;;21.30;100.00;101132.31;2076784;28;20188;-65
2022/07/10 01:30:55;;;;;;;4.90;3.10;;;;;;;21.36;100.00;101130.34;2080393;28;20941;-65
2022/07/10 01:31:56;;;;;;;6.90;3.60;;;;;;;21.28;100.00;101127.16;2077985;28;20467;-65
2022/07/10 01:32:57;;;;;;;4.27;3.10;;;;;;;21.35;100.00;101125.97;2072063;28;20459;-65
2022/07/10 01:34:00;;;;;;;8.23;3.10;;;;;;;21.35;100.00;101132.38;2071818;28;20186;-65
2022/07/10 01:35:00;;;;;;;4.63;2.97;;;;;;;21.39;100.00;101132.94;2074951;28;20181;-65
2022/07/10 01:36:01;;;;;;;5.43;3.13;;;;;;;21.38;100.00;101122.16;2079834;28;20440;-65
2022/07/10 01:37:01;;;;;;;6.30;3.23;;;;;;;20.25;100.00;100969.56;2073987;28;20283;-65
2022/07/10 01:38:02;;;;;;;4.17;3.30;;;;;;;21.34;100.00;101125.19;2072599;28;20189;-65
2022/07/10 01:39:02;;;;;;;4.47;3.30;;;;;;;21.32;100.00;101112.84;2077666;28;20231;-65
2022/07/10 01:40:04;;;;;;;4.53;3.00;;;;;;;21.31;100.00;101108.50;2078978;28;20192;-65
2022/07/10 01:41:04;;;;;;;8.40;3.30;;;;;;;21.35;100.00;101118.28;2079390;28;20188;-65
2022/07/10 01:42:05;;;;;;;4.57;3.07;;;;;;;21.36;100.00;101119.06;2075291;28;20423;-65
2022/07/10 01:43:06;;;;;;;5.33;3.17;;;;;;;21.37;100.00;101121.41;2081470;28;20176;-65
2022/07/10 01:44:06;;;;;;;3.70;2.97;;;;;;;21.38;100.00;101119.34;2074402;28;20733;-65
2022/07/10 01:45:08;;;;;;;5.33;2.80;;;;;;;21.19;100.00;101101.19;2081105;28;20203;-65
2022/07/10 01:46:12;;;;;;;7.07;3.37;;;;;;;21.41;100.00;101121.19;2081401;28;20643;-66
2022/07/10 01:47:12;;;;;;;7.20;3.30;;;;;;;21.31;100.00;101100.03;2076588;28;20443;-65
2022/07/10 01:48:13;;;;;;;4.37;3.40;;;;;;;21.35;100.00;101107.00;2073484;28;20194;-65
2022/07/10 01:49:13;;;;;;;4.73;2.90;;;;;;;21.42;100.00;101120.69;2073172;28;20197;-65
2022/07/10 01:50:14;;;;;;;6.13;3.37;;;;;;;21.40;100.00;101114.75;2076030;28;20186;-65
2022/07/10 01:51:15;;;;;;;4.93;2.90;;;;;;;21.42;100.00;101117.06;2081135;28;20188;-65
2022/07/10 01:52:15;;;;;;;5.17;2.97;;;;;;;20.69;100.00;101020.84;2074415;28;20201;-65
2022/07/10 01:53:16;;;;;;;7.87;3.17;;;;;;;21.32;100.00;101124.91;2073586;28;20193;-66
2022/07/10 01:54:16;;;;;;;5.57;3.10;;;;;;;21.21;100.00;101107.88;2074176;28;20181;-66
2022/07/10 01:55:17;;;;;;;3.17;2.80;;;;;;;21.17;100.00;101101.66;2079835;28;20219;-65
2022/07/10 01:56:17;;;;;;;4.93;3.40;;;;;;;21.28;100.00;101118.72;2076781;28;20557;-65
2022/07/10 01:57:18;;;;;;;5.00;2.90;;;;;;;21.27;100.00;101117.16;2074057;28;20220;-65
2022/07/10 01:58:19;;;;;;;4.40;2.97;;;;;;;21.29;100.00;101114.63;2076550;28;20542;-65
2022/07/10 01:59:19;;;;;;;4.60;3.20;;;;;;;21.31;100.00;101114.91;2080440;28;20195;-65
2022/07/10 02:00:20;;;;;;;8.20;3.27;;;;;;;20.50;100.00;100991.41;2073790;28;20208;-65
2022/07/10 02:01:20;;;;;;;4.73;2.93;;;;;;;21.32;100.00;101124.91;2073546;28;20268;-66
2022/07/10 02:02:21;;;;;;;5.27;3.13;;;;;;;21.28;100.00;101109.50;2080474;28;20242;-66
2022/07/10 02:04:41;;;;;;;5.70;3.20;;;;;;;21.35;100.00;101121.09;2081619;28;20197;-65
2022/07/10 02:05:41;;;;;;;9.17;3.30;;;;;;;20.82;100.00;101041.75;2074736;28;21004;-65
2022/07/10 02:06:42;;;;;;;5.30;3.10;;;;;;;21.31;100.00;101119.78;2074052;28;20209;-66
2022/07/10 02:07:42;;;;;;;5.30;2.83;;;;;;;20.33;100.00;100962.25;2078369;28;20181;-65
2022/07/10 02:08:43;;;;;;;3.97;3.10;;;;;;;20.22;100.00;100948.81;2082023;28;20184;-65
2022/07/10 02:09:44;;;;;;;5.53;3.10;;;;;;;21.39;100.00;101113.19;2079725;28;20177;-65
2022/07/10 02:10:45;;;;;;;5.97;3.17;;;;;;;21.34;100.00;101113.91;2073562;28;20272;-65
2022/07/10 02:11:45;;;;;;;5.93;3.13;;;;;;;21.36;100.00;101113.44;2074336;28;20416;-66
2022/07/10 02:12:45;;;;;;;4.53;2.93;;;;;;;21.35;100.00;101111.88;2073458;28;20228;-65
2022/07/10 02:13:46;;;;;;;5.20;3.10;;;;;;;21.40;100.00;101128.09;2073881;28;20185;-65
2022/07/10 02:14:47;;;;;;;5.43;3.27;;;;;;;21.40;100.00;101114.75;2079634;28;20651;-65
2022/07/10 02:15:47;;;;;;;3.80;2.67;;;;;;;21.40;100.00;101114.75;2076790;28;20285;-65
2022/07/10 02:16:48;;;;;;;5.90;3.13;;;;;;;21.43;100.00;101104.53;2077256;28;20185;-65
2022/07/10 02:17:48;;;;;;;4.63;3.20;;;;;;;21.42;100.00;101114.25;2079727;28;20181;-65
2022/07/10 02:18:49;;;;;;;7.50;3.40;;;;;;;21.35;100.00;101106.25;2074904;28;20286;-65
2022/07/10 02:19:49;;;;;;;5.93;2.87;;;;;;;21.33;100.00;101115.19;2081793;28;20185;-65
2022/07/10 02:20:51;;;;;;;3.90;3.00;;;;;;;21.35;100.00;101118.28;2082050;28;20169;-66
2022/07/10 02:21:52;;;;;;;6.93;3.33;;;;;;;21.40;100.00;101111.94;2074859;28;20217;-65
2022/07/10 02:22:52;;;;;;;5.27;2.90;;;;;;;21.41;100.00;101107.88;2079419;28;20435;-65
2022/07/10 02:23:52;;;;;;;5.03;2.80;;;;;;;21.43;100.00;101115.81;2082143;28;20189;-65
2022/07/10 02:24:53;;;;;;;4.67;3.00;;;;;;;21.07;100.00;101060.81;2081765;28;20197;-65
2022/07/10 02:25:53;;;;;;;6.00;3.10;;;;;;;21.42;100.00;101117.88;2078154;28;20244;-65
2022/07/10 02:26:55;;;;;;;4.10;3.13;;;;;;;21.39;100.00;101110.38;2073823;28;20672;-65
2022/07/10 02:27:55;;;;;;;5.60;3.20;;;;;;;21.39;100.00;101116.03;2074406;28;20213;-66
2022/07/10 02:28:56;;;;;;;5.77;2.97;;;;;;;21.36;100.00;101108.56;2082114;28;20427;-66
2022/07/10 02:29:56;;;;;;;5.07;3.03;;;;;;;21.34;100.00;101105.47;2074164;28;20205;-65
2022/07/10 02:30:57;;;;;;;4.60;3.00;;;;;;;20.76;100.00;101015.56;2073564;28;20201;-66
2022/07/10 02:31:58;;;;;;;8.00;3.33;;;;;;;20.98;100.00;101049.69;2079344;28;20197;-66
2022/07/10 02:32:58;;;;;;;3.00;2.70;;;;;;;21.42;100.00;101108.63;2081224;28;20223;-65
2022/07/10 02:33:58;;;;;;;6.93;3.13;;;;;;;21.38;100.00;101099.59;2078769;28;20482;-65
2022/07/10 02:34:59;;;;;;;4.97;3.00;;;;;;;21.39;100.00;101110.38;2074395;28;20238;-65
2022/07/10 02:35:59;;;;;;;4.90;2.87;;;;;;;21.38;100.00;101100.38;2078508;28;20673;-65
2022/07/10 02:37:00;;;;;;;4.50;2.77;;;;;;;21.28;100.00;101090.53;2082100;28;20189;-65
2022/07/10 02:38:00;;;;;;;5.33;3.10;;;;;;;21.45;100.00;101099.94;2082042;28;20196;-65
2022/07/10 02:39:01;;;;;;;6.83;3.33;;;;;;;21.42;100.00;101112.22;2074684;28;20185;-65
2022/07/10 02:40:02;;;;;;;4.60;2.93;;;;;;;21.49;100.00;101111.78;2079384;28;20201;-65
2022/07/10 02:41:02;;;;;;;5.03;3.40;;;;;;;20.96;100.00;101017.63;2081558;28;20255;-65
2022/07/10 02:42:03;;;;;;;4.47;2.83;;;;;;;21.47;100.00;101103.06;2081999;28;20680;-65
2022/07/10 02:43:04;;;;;;;5.27;2.83;;;;;;;21.46;100.00;101101.50;2078713;28;20234;-65
2022/07/10 02:44:05;;;;;;;3.90;2.80;;;;;;;21.24;100.00;101066.66;2073710;28;20264;-65
2022/07/10 02:45:06;;;;;;;3.73;3.00;;;;;;;21.51;100.00;101105.66;2073728;28;20220;-65
2022/07/10 02:46:07;;;;;;;6.10;3.00;;;;;;;21.38;100.00;101089.09;2080451;28;20187;-65
2022/07/10 02:47:07;;;;;;;5.70;3.67;;;;;;;21.48;100.00;101098.97;2073568;28;20490;-66
2022/07/10 02:48:08;;;;;;;5.00;3.10;;;;;;;21.44;100.00;101098.41;2073849;28;20197;-65
2022/07/10 02:49:08;;;;;;;6.70;2.87;;;;;;;21.35;100.00;101092.91;2073015;28;20208;-66
2022/07/10 02:50:09;;;;;;;5.77;3.27;;;;;;;21.36;100.00;101099.31;2077460;28;20246;-65
2022/07/10 02:51:09;;;;;;;5.03;3.47;;;;;;;21.42;100.00;101105.81;2078723;28;20198;-66
2022/07/10 02:52:10;;;;;;;8.47;3.00;;;;;;;20.59;100.00;100965.94;2075564;28;20559;-65
2022/07/10 02:53:11;;;;;;;4.20;3.20;;;;;;;21.41;100.00;101105.03;2080917;28;20185;-66
2022/07/10 02:54:11;;;;;;;4.17;3.30;;;;;;;21.44;100.00;101097.63;2082089;28;20183;-65
2022/07/10 02:55:12;;;;;;;5.37;3.00;;;;;;;21.47;100.00;101099.44;2081607;28;20254;-65
2022/07/10 02:56:12;;;;;;;4.67;2.70;;;;;;;21.50;100.00;101099.22;2080887;28;20185;-65
2022/07/10 02:57:13;;;;;;;3.90;3.03;;;;;;;21.52;100.00;101098.75;2076163;28;20225;-65
2022/07/10 02:58:15;;;;;;;4.07;2.87;;;;;;;21.54;100.00;101104.69;2073610;28;20233;-65
2022/07/10 02:59:16;;;;;;;4.77;3.17;;;;;;;21.58;100.00;101093.94;2076933;28;20654;-65
2022/07/10 03:00:17;;;;;;;6.20;2.90;;;;;;;21.56;100.00;101105.72;2078771;28;20431;-65
2022/07/10 03:01:17;;;;;;;6.73;2.80;;;;;;;21.59;100.00;101099.06;2074690;28;20458;-65
2022/07/10 03:02:18;;;;;;;6.03;3.07;;;;;;;21.52;100.00;101088.25;2081407;28;20188;-65
2022/07/10 03:03:19;;;;;;;3.33;2.67;;;;;;;21.03;100.00;101003.13;2073463;28;20185;-65
2022/07/10 03:04:19;;;;;;;5.73;2.80;;;;;;;21.55;100.00;101098.50;2081115;28;20192;-65
2022/07/10 03:05:20;;;;;;;4.17;2.93;;;;;;;21.57;100.00;101101.63;2074961;28;20218;-65
2022/07/10 03:06:21;;;;;;;3.70;2.43;;;;;;;21.61;100.00;101104.22;2073103;28;20185;-66
2022/07/10 03:07:21;;;;;;;4.73;2.97;;;;;;;21.20;100.00;101030.22;2076707;28;20733;-65
2022/07/10 03:08:22;;;;;;;4.43;2.90;;;;;;;21.69;100.00;101105.38;2078215;28;20578;-65
2022/07/10 03:09:22;;;;;;;6.57;3.00;;;;;;;20.68;100.00;100948.91;2073238;28;20630;-65
2022/07/10 03:10:23;;;;;;;6.87;2.90;;;;;;;20.55;100.00;100935.19;2073609;28;20178;-66
2022/07/10 03:11:23;;;;;;;4.93;3.10;;;;;;;21.70;100.00;101099.22;2081899;28;20697;-66
2022/07/10 03:12:24;;;;;;;5.50;2.83;;;;;;;21.71;100.00;101100.78;2081378;28;20197;-65
2022/07/10 03:13:24;;;;;;;3.17;2.57;;;;;;;21.65;100.00;101082.22;2075033;28;20220;-65
2022/07/10 03:14:25;;;;;;;4.53;2.53;;;;;;;21.74;100.00;101096.19;2078825;28;20181;-65
2022/07/10 03:15:25;;;;;;;5.17;2.57;;;;;;;21.72;100.00;101098.72;2081146;28;20192;-65
2022/07/10 03:16:26;;;;;;;7.47;2.83;;;;;;;21.69;100.00;101096.91;2078068;28;20194;-66
2022/07/10 03:17:27;;;;;;;5.13;2.90;;;;;;;21.48;100.00;101064.34;2073296;28;20178;-66
2022/07/10 03:18:27;;;;;;;4.63;2.80;;;;;;;21.64;100.00;101080.69;2074458;28;20268;-65
2022/07/10 03:19:28;;;;;;;7.17;2.87;;;;;;;21.74;100.00;101099.78;2081767;28;20191;-65
2022/07/10 03:20:28;;;;;;;4.43;2.50;;;;;;;21.68;100.00;101082.03;2073219;28;20194;-66
2022/07/10 03:21:30;;;;;;;7.70;2.93;;;;;;;21.81;100.00;101101.38;2073319;28;20251;-66
2022/07/10 03:22:32;;;;;;;5.80;2.33;;;;;;;21.77;100.00;101101.63;2078980;28;20192;-65
2022/07/10 03:23:32;;;;;;;5.17;2.60;;;;;;;21.81;100.00;101104.97;2076429;28;20951;-65
2022/07/10 03:24:33;;;;;;;6.57;2.67;;;;;;;21.83;100.00;101099.63;2077497;28;20788;-65
2022/07/10 03:25:33;;;;;;;5.73;2.23;;;;;;;21.84;100.00;101097.56;2080608;28;20217;-66
2022/07/10 03:26:34;;;;;;;4.13;2.63;;;;;;;21.70;100.00;101078.72;2079870;28;20276;-65
2022/07/10 03:27:34;;;;;;;6.23;2.60;;;;;;;21.80;100.00;101091.38;2073648;28;20228;-65
2022/07/10 03:28:35;;;;;;;5.27;2.70;;;;;;;21.77;100.00;101095.19;2081754;28;20670;-66
2022/07/10 03:29:36;;;;;;;3.40;2.53;;;;;;;21.79;100.00;101099.06;2081396;28;20185;-65
2022/07/10 03:30:37;;;;;;;7.73;2.70;;;;;;;21.48;100.00;101044.59;2074596;28;20260;-65
2022/07/10 03:31:37;;;;;;;5.43;2.67;;;;;;;21.82;100.00;101092.44;2078664;28;20295;-65
2022/07/10 03:32:37;;;;;;;4.67;2.63;;;;;;;21.74;100.00;101090.56;2076059;28;20283;-65
2022/07/10 03:33:38;;;;;;;7.20;2.80;;;;;;;21.63;100.00;101088.34;2072708;28;20182;-66
2022/07/10 03:34:39;;;;;;;4.87;2.70;;;;;;;21.48;100.00;101067.16;2073369;28;20178;-66
2022/07/10 03:35:40;;;;;;;3.77;2.70;;;;;;;21.67;100.00;101091.75;2080511;28;20424;-66
2022/07/10 03:36:40;;;;;;;6.13;3.03;;;;;;;21.66;100.00;101080.94;2082001;28;20173;-66
2022/07/10 03:37:41;;;;;;;5.73;2.57;;;;;;;21.46;100.00;101050.75;2080636;28;20232;-65
2022/07/10 03:38:41;;;;;;;7.77;3.00;;;;;;;21.17;100.00;101005.06;2074008;28;20190;-65
2022/07/10 03:39:42;;;;;;;7.30;2.40;;;;;;;21.76;100.00;101097.25;2073089;28;20202;-65
2022/07/10 03:40:42;;;;;;;5.60;2.60;;;;;;;21.76;100.00;101102.91;2077885;28;20177;-66
2022/07/10 03:41:43;;;;;;;4.60;2.80;;;;;;;21.80;100.00;101100.59;2081397;28;20193;-66
2022/07/10 03:42:43;;;;;;;5.80;2.80;;;;;;;21.83;100.00;101096.00;2078473;28;20181;-65
2022/07/10 03:43:43;;;;;;;4.37;2.60;;;;;;;20.86;100.00;100946.56;2073161;28;20543;-65
2022/07/10 03:44:44;;;;;;;4.37;2.50;;;;;;;21.83;100.00;101099.63;2072435;28;20181;-66
2022/07/10 03:45:45;;;;;;;3.80;2.50;;;;;;;21.80;100.00;101094.97;2071936;28;20417;-65
2022/07/10 03:46:46;;;;;;;4.87;2.50;;;;;;;21.71;100.00;101074.63;2080447;28;20327;-66
2022/07/10 03:47:46;;;;;;;7.17;2.60;;;;;;;21.85;100.00;101085.78;2075380;28;20190;-66
2022/07/10 03:48:46;;;;;;;7.40;2.80;;;;;;;21.84;100.00;101095.53;2077844;28;20193;-65
2022/07/10 03:49:47;;;;;;;4.53;2.60;;;;;;;21.87;100.00;101094.53;2077681;28;20197;-65
2022/07/10 03:50:50;;;;;;;6.73;3.03;;;;;;;21.45;100.00;101021.00;2074611;28;21811;-65
2022/07/10 03:51:51;;;;;;;4.67;2.87;;;;;;;21.90;100.00;101096.34;2078861;28;20563;-65
2022/07/10 03:52:51;;;;;;;8.53;2.93;;;;;;;21.73;100.00;101070.03;2073311;28;20178;-66
2022/07/10 03:53:52;;;;;;;7.43;2.70;;;;;;;21.92;100.00;101093.81;2081624;28;20714;-66
2022/07/10 03:54:54;;;;;;;4.97;3.23;;;;;;;21.92;100.00;101101.50;2073332;28;20196;-66
2022/07/10 03:55:54;;;;;;;5.87;2.90;;;;;;;21.90;100.00;101101.22;2079404;28;20196;-65
2022/07/10 03:58:15;;;;;;;6.07;3.10;;;;;;;21.92;100.00;101096.63;2081363;28;20216;-65
2022/07/10 03:59:15;;;;;;;4.90;3.00;;;;;;;21.89;100.00;101099.66;2080462;28;20485;-66
2022/07/10 04:00:16;;;;;;;7.63;3.20;;;;;;;21.92;100.00;101095.84;2076655;28;20273;-66
2022/07/10 04:01:18;;;;;;;4.43;2.70;;;;;;;21.93;100.00;101098.19;2088210;28;20694;-65
2022/07/10 04:02:18;;;;;;;5.17;2.37;;;;;;;21.94;100.00;101094.06;2078092;28;20580;-65
2022/07/10 04:03:20;;;;;;;6.63;2.83;;;;;;;21.95;100.00;101095.63;2072899;28;20205;-65
2022/07/10 04:04:20;;;;;;;6.47;2.87;;;;;;;21.65;100.00;101060.41;2073902;28;20209;-65
2022/07/10 04:05:21;;;;;;;4.07;2.70;;;;;;;21.88;100.00;101090.44;2080922;28;20192;-66
2022/07/10 04:06:21;;;;;;;5.60;2.90;;;;;;;21.26;100.00;100991.59;2072894;28;20205;-66
2022/07/10 04:07:22;;;;;;;4.97;2.57;;;;;;;21.85;100.00;101097.06;2079763;28;20223;-65
2022/07/10 04:08:22;;;;;;;4.17;2.53;;;;;;;21.90;100.00;101096.34;2075693;28;20283;-65
2022/07/10 04:09:23;;;;;;;5.73;3.00;;;;;;;21.93;100.00;101100.22;2072950;28;20264;-65
2022/07/10 04:10:25;;;;;;;4.90;2.73;;;;;;;21.99;100.00;101089.75;2072836;28;20280;-65
2022/07/10 04:11:25;;;;;;;3.83;2.60;;;;;;;21.88;100.00;101078.38;2072553;28;20185;-66
2022/07/10 04:12:26;;;;;;;5.40;2.87;;;;;;;21.29;100.00;100998.28;2072547;28;20186;-65
2022/07/10 04:13:26;;;;;;;7.07;2.67;;;;;;;22.00;100.00;101088.50;2072850;28;20174;-65
2022/07/10 04:14:27;;;;;;;4.90;2.70;;;;;;;21.14;100.00;100967.38;2073327;28;20643;-65
2022/07/10 04:15:27;;;;;;;6.60;2.97;;;;;;;22.06;100.00;101092.13;2072455;28;20185;-66
2022/07/10 04:16:28;;;;;;;7.90;2.50;;;;;;;22.04;100.00;101086.97;2072607;28;20193;-65
2022/07/10 04:17:29;;;;;;;4.80;2.90;;;;;;;21.97;100.00;101078.97;2077791;28;20600;-66
2022/07/10 04:18:29;;;;;;;9.13;3.27;;;;;;;22.03;100.00;101088.25;2077345;28;20202;-65
2022/07/10 04:19:30;;;;;;;6.00;2.80;;;;;;;21.98;100.00;101074.88;2075561;28;20693;-65
2022/07/10 04:20:30;;;;;;;5.00;2.70;;;;;;;22.04;100.00;101086.97;2079208;28;20276;-65
2022/07/10 04:21:31;;;;;;;4.40;2.90;;;;;;;22.06;100.00;101084.44;2072536;28;20216;-65
2022/07/10 04:22:31;;;;;;;7.07;2.57;;;;;;;22.08;100.00;101081.91;2072705;28;20174;-66
2022/07/10 04:23:35;;;;;;;8.60;2.73;;;;;;;22.09;100.00;101083.44;2080362;28;20181;-65
2022/07/10 04:24:35;;;;;;;5.60;2.80;;;;;;;22.15;100.00;101078.59;2074390;28;20258;-65
2022/07/10 04:25:36;;;;;;;4.93;2.87;;;;;;;22.19;100.00;101084.00;2071698;28;20279;-65
2022/07/10 04:26:36;;;;;;;6.00;2.60;;;;;;;22.23;100.00;101090.22;2076765;28;20304;-65
2022/07/10 04:27:37;;;;;;;5.13;2.40;;;;;;;22.27;100.00;101085.13;2076991;28;20225;-65
2022/07/10 04:28:37;;;;;;;7.50;2.67;;;;;;;22.31;100.00;101083.59;2072969;28;20614;-66
2022/07/10 04:29:38;;;;;;;5.70;2.30;;;;;;;22.36;100.00;101079.28;2072931;28;20670;-65
2022/07/10 04:30:38;;;;;;;4.80;2.40;;;;;;;22.44;100.00;101078.34;2071889;28;20746;-66
2022/07/10 04:31:39;;;;;;;6.83;2.60;;;;;;;22.11;100.00;101018.03;2072334;28;20173;-65
2022/07/10 04:32:39;;;;;;;5.53;2.43;;;;;;;22.54;100.00;101079.69;2086997;28;20279;-66
2022/07/10 04:33:40;;;;;;;10.27;2.80;;;;;;;22.50;100.00;101067.84;2082339;28;20258;-65
2022/07/10 04:34:40;;;;;;;3.00;2.20;;;;;;;22.61;100.00;101079.22;2077706;28;20191;-65
2022/07/10 04:35:41;;;;;;;5.07;2.10;;;;;;;22.41;100.00;101050.31;2079236;28;20193;-65
2022/07/10 04:36:41;;;;;;;8.03;2.33;;;;;;;22.66;100.00;101086.97;2080916;28;20212;-66
2022/07/10 04:37:42;;;;;;;3.63;2.37;;;;;;;22.75;100.00;101077.50;2079386;28;20177;-66
2022/07/10 04:38:42;;;;;;;4.83;2.70;;;;;;;22.82;100.00;101079.88;2072676;28;20201;-66
2022/07/10 04:39:43;;;;;;;4.47;2.40;;;;;;;22.71;100.00;101066.44;2073007;28;20188;-66
2022/07/10 04:40:44;;;;;;;5.60;2.40;;;;;;;22.93;100.00;101086.31;2080116;28;20709;-66
2022/07/10 04:41:44;;;;;;;5.80;2.40;;;;;;;22.99;100.00;101081.50;2080812;28;20667;-65